^^
Datos históricos de la estación: Murcia-Puente Tocinos
Diario Informe para Abril 26, 2019 Unidades:  Métrico    Ingés   Ambas
Diario Semanal Mensual Anual
  Máxima: Mínima: Promedio:
Temperatura: 35.8 °C 23.4 °C 29.3 °C
Punto de rocio: 22.6 °C 13.8 °C 18.4 °C
Humedad: 87% 29% 56%
Velocidad viento: 20.1km/h 0km/h 7.6km/h
Racha viento: 33.8km/h - -
Viento- - SE
Presión: 1011.9 hPa 1004.1 hPa -
Precipitación: 0.0 mm    
 
 
Tabla de datos para Abril 26, 2019
Hora Temperatura Punto de rocio Presión Viento Velocidad viento Racha viento Humedad Intensidad lluvia(por hora) Nubes
00:04 25.7 °C 22.4 °C 1011.9 hPa NE 8.7 km/h 14.5 km/h 82% 0.0 mm
00:09 25.7 °C 22.3 °C 1011.9 hPa NE 8.4 km/h 12.9 km/h 81.7% 0.0 mm
00:14 25.7 °C 22.2 °C 1011.9 hPa NE 7.6 km/h 13 km/h 81.1% 0.0 mm
00:19 25.7 °C 22.3 °C 1011.9 hPa NE 7.8 km/h 13 km/h 81.7% 0.0 mm
00:24 25.7 °C 22.3 °C 1011.8 hPa NE 8.4 km/h 12.9 km/h 81.3% 0.0 mm
00:29 25.8 °C 22.3 °C 1011.8 hPa NE 7.8 km/h 12.2 km/h 81% 0.0 mm
00:34 25.8 °C 22.3 °C 1011.8 hPa NE 6.5 km/h 12.9 km/h 81% 0.0 mm
00:39 25.7 °C 22.4 °C 1011.8 hPa NE 6.3 km/h 11.3 km/h 81.8% 0.0 mm
00:44 25.7 °C 22.4 °C 1011.8 hPa NNE 5.8 km/h 9.7 km/h 82% 0.0 mm
00:49 25.7 °C 22.3 °C 1011.8 hPa NNE 5.2 km/h 8 km/h 82% 0.0 mm
00:54 25.6 °C 22.3 °C 1011.8 hPa NNE 3.9 km/h 8.4 km/h 82.3% 0.0 mm
00:59 25.6 °C 22.5 °C 1011.8 hPa NNE 4.1 km/h 9.3 km/h 83% 0.0 mm
01:04 25.6 °C 22.5 °C 1011.8 hPa NNE 4.6 km/h 9.7 km/h 83% 0.0 mm
01:09 25.6 °C 22.5 °C 1011.7 hPa NNE 4.4 km/h 10 km/h 83.2% 0.0 mm
01:14 25.4 °C 22.6 °C 1011.7 hPa NNE 3.9 km/h 9.7 km/h 84% 0.0 mm
01:19 25.4 °C 22.5 °C 1011.7 hPa NE 4.4 km/h 10 km/h 84% 0.0 mm
01:24 25.3 °C 22.6 °C 1011.6 hPa NE 5.8 km/h 11.1 km/h 84.9% 0.0 mm
01:29 25.2 °C 22.6 °C 1011.6 hPa NNE 6 km/h 11.3 km/h 85% 0.0 mm
01:34 25.2 °C 22.6 °C 1011.6 hPa NNE 6.5 km/h 11.3 km/h 85.6% 0.0 mm
01:39 25.1 °C 22.6 °C 1011.3 hPa North 6.3 km/h 9.7 km/h 86% 0.0 mm
01:44 25.1 °C 22.6 °C 1011.3 hPa NNE 5.8 km/h 8 km/h 86% 0.0 mm
01:49 25.1 °C 22.6 °C 1011.3 hPa NE 5.4 km/h 8.4 km/h 86% 0.0 mm
01:54 25.1 °C 22.6 °C 1011.3 hPa NE 4.7 km/h 9.3 km/h 86% 0.0 mm
01:59 25 °C 22.6 °C 1011.3 hPa ENE 4.8 km/h 9.7 km/h 86.3% 0.0 mm
02:04 24.9 °C 22.6 °C 1011.3 hPa NE 5 km/h 9.5 km/h 87% 0.0 mm
02:09 24.9 °C 22.6 °C 1011.0 hPa NE 5.2 km/h 9.7 km/h 87% 0.0 mm
02:14 24.9 °C 22.6 °C 1011.0 hPa NE 5.8 km/h 9.7 km/h 87% 0.0 mm
02:19 24.9 °C 22.6 °C 1011.0 hPa NE 5.5 km/h 8 km/h 87% 0.0 mm
02:24 24.8 °C 22.5 °C 1010.9 hPa NE 4.7 km/h 6.4 km/h 87% 0.0 mm
02:29 24.9 °C 22.6 °C 1010.9 hPa ENE 3.2 km/h 6.4 km/h 87% 0.0 mm
02:34 24.9 °C 22.5 °C 1010.9 hPa Calm   6.9 km/h 86.7% 0.0 mm
02:39 24.9 °C 22.4 °C 1010.6 hPa ESE 1.4 km/h 8 km/h 86% 0.0 mm
02:44 24.9 °C 22.4 °C 1010.6 hPa ESE 4.7 km/h 8 km/h 86% 0.0 mm
02:49 24.9 °C 22.4 °C 1010.7 hPa SE 4.2 km/h 8 km/h 86% 0.0 mm
02:54 24.8 °C 22.3 °C 1010.7 hPa SE 3.2 km/h 8 km/h 86% 0.0 mm
02:59 24.8 °C 22.3 °C 1010.7 hPa SE 2.2 km/h   86% 0.0 mm
03:04 24.8 °C 22.3 °C 1010.7 hPa Calm   5.8 km/h 86% 0.0 mm
03:09 24.8 °C 22.3 °C 1010.4 hPa OSO 0.7 km/h 6.4 km/h 86% 0.0 mm
03:14 24.8 °C 22.3 °C 1010.4 hPa OSO 2.2 km/h 4.8 km/h 86% 0.0 mm
03:19 24.8 °C 22.3 °C 1010.4 hPa OSO 1.6 km/h   86% 0.0 mm
03:24 24.8 °C 22.3 °C 1010.3 hPa Calm   5.8 km/h 86% 0.0 mm
03:29 24.8 °C 22.3 °C 1010.3 hPa Oeste 0.7 km/h 6.4 km/h 86% 0.0 mm
03:34 24.8 °C 22.2 °C 1010.3 hPa Sur 2.2 km/h 7.6 km/h 85.3% 0.0 mm
03:39 24.8 °C 22.1 °C 1010.2 hPa SE 2.5 km/h 8 km/h 84.8% 0.0 mm
03:44 24.8 °C 21.7 °C 1010.2 hPa SSE 3.2 km/h 9.5 km/h 83.3% 0.0 mm
03:49 24.6 °C 21 °C 1010.2 hPa SSO 4 km/h 11.1 km/h 80.3% 0.0 mm
03:54 24.6 °C 20.4 °C 1009.9 hPa Sur 5.8 km/h 11.3 km/h 77.6% 0.0 mm
03:59 24.6 °C 20.2 °C 1009.9 hPa SSO 5.8 km/h 9.7 km/h 76.3% 0.0 mm
04:04 24.6 °C 20.1 °C 1009.9 hPa SO 5.8 km/h 9.3 km/h 76% 0.0 mm
04:09 24.7 °C 20.2 °C 1009.9 hPa SO 5.5 km/h 11.1 km/h 76% 0.0 mm
04:14 24.8 °C 20.3 °C 1009.9 hPa SO 5 km/h 11.3 km/h 76% 0.0 mm
04:19 24.8 °C 20.3 °C 1010.0 hPa SO 4.9 km/h 9.7 km/h 76% 0.0 mm
04:24 24.8 °C 20.3 °C 1010.0 hPa OSO 4.7 km/h 9.7 km/h 76% 0.0 mm
04:29 24.8 °C 20.3 °C 1010.0 hPa Oeste 4.7 km/h 9.7 km/h 76% 0.0 mm
04:34 24.7 °C 20.3 °C 1010.0 hPa Oeste 4.7 km/h 8 km/h 76.7% 0.0 mm
04:39 24.7 °C 20.4 °C 1009.9 hPa OSO 4.2 km/h 8 km/h 77.1% 0.0 mm
04:44 24.7 °C 20.6 °C 1009.9 hPa SO 3.2 km/h 11.1 km/h 78% 0.0 mm
04:49 24.7 °C 20.6 °C 1009.9 hPa OSO 4 km/h 11.3 km/h 78% 0.0 mm
04:54 24.7 °C 20.5 °C 1009.8 hPa Sur 5.8 km/h 10.3 km/h 77.4% 0.0 mm
04:59 24.6 °C 20.3 °C 1009.8 hPa Sur 5.8 km/h 11.3 km/h 77% 0.0 mm
05:04 24.5 °C 20.2 °C 1009.8 hPa SSO 5.8 km/h 13 km/h 77% 0.0 mm
05:09 24.4 °C 19.9 °C 1009.7 hPa SSO 6.6 km/h 14.8 km/h 75.9% 0.0 mm
05:14 24.3 °C 19.6 °C 1009.7 hPa SSO 8.7 km/h 14.5 km/h 75% 0.0 mm
05:19 24.3 °C 19.4 °C 1009.7 hPa SO 8.7 km/h 13 km/h 74.3% 0.0 mm
05:24 24.3 °C 19.6 °C 1009.7 hPa SSO 8.7 km/h 12.9 km/h 75% 0.0 mm
05:29 24.3 °C 19.6 °C 1009.7 hPa SSO 7.8 km/h 10 km/h 75.3% 0.0 mm
05:34 24.3 °C 19.8 °C 1009.7 hPa SSO 5.8 km/h 9.7 km/h 76% 0.0 mm
05:39 24.3 °C 19.8 °C 1009.6 hPa SSO 5.8 km/h 9.7 km/h 76.2% 0.0 mm
05:44 24.3 °C 19.8 °C 1009.6 hPa SO 5.8 km/h 9.7 km/h 76% 0.0 mm
05:49 24.3 °C 19.7 °C 1009.7 hPa SO 5.5 km/h 13 km/h 75.5% 0.0 mm
05:54 24.3 °C 19.6 °C 1009.7 hPa OSO 5 km/h 13 km/h 75% 0.0 mm
05:59 24.3 °C 19.6 °C 1009.7 hPa SO 5.9 km/h 12.9 km/h 75% 0.0 mm
06:04 24.3 °C 19.6 °C 1009.7 hPa SO 7.6 km/h 11.3 km/h 75% 0.0 mm
06:09 24.3 °C 19.7 °C 1009.7 hPa SO 7.1 km/h 11.3 km/h 75.6% 0.0 mm
06:14 24.2 °C 19.7 °C 1009.7 hPa OSO 5.8 km/h 9.7 km/h 76% 0.0 mm
06:19 24.2 °C 19.5 °C 1009.7 hPa ONO 5.5 km/h 9.7 km/h 75.1% 0.0 mm
06:24 24.1 °C 19.4 °C 1009.6 hPa Oeste 4.7 km/h 8.4 km/h 75% 0.0 mm
06:29 23.9 °C 19.4 °C 1009.6 hPa OSO 4.4 km/h 8 km/h 76% 0.0 mm
06:34 23.9 °C 19.4 °C 1009.6 hPa OSO 3.9 km/h 8 km/h 76% 0.0 mm
06:39 23.9 °C 19.4 °C 1009.4 hPa OSO 2.7 km/h   76% 0.0 mm
06:44 23.9 °C 19.4 °C 1009.4 hPa Calm     76% 0.0 mm
06:49 23.9 °C 19.4 °C 1009.4 hPa Calm   5.8 km/h 75.9% 0.0 mm
06:54 23.8 °C 19.3 °C 1009.4 hPa Calm   6.9 km/h 75.9% 0.0 mm
06:59 23.7 °C 19.2 °C 1009.4 hPa SSE 1.5 km/h 9.5 km/h 76% 0.0 mm
07:04 23.6 °C 19.1 °C 1009.4 hPa SSE 4.6 km/h 10 km/h 76.3% 0.0 mm
07:09 23.4 °C 19.1 °C 1009.4 hPa ESE 5 km/h 9.7 km/h 77% 0.0 mm
07:14 23.4 °C 19.2 °C 1009.4 hPa SE 5.8 km/h 8 km/h 77% 0.0 mm
07:19 23.4 °C 19.1 °C 1009.5 hPa SSE 5.5 km/h 11.1 km/h 77% 0.0 mm
07:24 23.4 °C 19.1 °C 1009.5 hPa SSE 4.7 km/h 11.3 km/h 77% 0.0 mm
07:29 23.4 °C 19.1 °C 1009.5 hPa Sur 5.5 km/h 11.3 km/h 76.8% 0.0 mm
07:34 23.5 °C 19 °C 1009.7 hPa Sur 7.6 km/h 9.7 km/h 76% 0.0 mm
07:39 23.6 °C 19.1 °C 1009.7 hPa Sur 7.2 km/h 11.1 km/h 76% 0.0 mm
07:44 23.6 °C 18.9 °C 1009.7 hPa Sur 6.5 km/h 11.3 km/h 75.1% 0.0 mm
07:49 23.6 °C 18.6 °C 1009.7 hPa SSO 6.5 km/h 13.7 km/h 73.3% 0.0 mm
07:54 23.7 °C 18.2 °C 1009.7 hPa SO 6.5 km/h 14.5 km/h 71.2% 0.0 mm
07:59 23.8 °C 17.6 °C 1009.7 hPa SO 6.8 km/h 14.5 km/h 68.2% 0.0 mm
08:04 23.8 °C 17.4 °C 1009.8 hPa OSO 7.6 km/h 17.2 km/h 67.4% 0.0 mm
08:09 23.8 °C 17.4 °C 1009.8 hPa OSO 7.9 km/h 17.7 km/h 67.4% 0.0 mm
08:14 23.9 °C 17.7 °C 1009.8 hPa OSO 8.7 km/h 16.1 km/h 68.2% 0.0 mm
08:19 23.9 °C 17.9 °C 1010.0 hPa Oeste 8.2 km/h 11.9 km/h 69% 0.0 mm
08:24 24 °C 17.9 °C 1010.0 hPa Oeste 6.9 km/h 12.2 km/h 69% 0.0 mm
08:29 24 °C 17.8 °C 1010.0 hPa Oeste 6.9 km/h 13 km/h 68.3% 0.0 mm
08:34 23.9 °C 17.7 °C 1010.0 hPa Oeste 6.9 km/h 12.9 km/h 68.1% 0.0 mm
08:39 24 °C 17.7 °C 1009.8 hPa OSO 6.4 km/h 8.4 km/h 68% 0.0 mm
08:44 24.1 °C 17.7 °C 1009.8 hPa OSO 5 km/h 9.5 km/h 67.2% 0.0 mm
08:49 24.3 °C 17.6 °C 1010.0 hPa OSO 5 km/h 9.7 km/h 66.5% 0.0 mm
08:54 24.5 °C 17.6 °C 1010.0 hPa Oeste 5 km/h 9.7 km/h 65.7% 0.0 mm
08:59 24.6 °C 17.6 °C 1010.0 hPa Oeste 4.6 km/h 10 km/h 65.1% 0.0 mm
09:04 24.7 °C 17.7 °C 1010.0 hPa Oeste 3.9 km/h 9.7 km/h 65.1% 0.0 mm
09:09 24.8 °C 17.8 °C 1010.0 hPa SO 4.1 km/h 8.7 km/h 65.1% 0.0 mm
09:14 25.1 °C 17.9 °C 1010.0 hPa Sur 4.7 km/h 9.7 km/h 64.4% 0.0 mm
09:19 25.2 °C 17.9 °C 1010.0 hPa SE 5.3 km/h 11.9 km/h 64% 0.0 mm
09:24 25.3 °C 18.2 °C 1010.0 hPa SSE 6.9 km/h 11.3 km/h 64.5% 0.0 mm
09:29 25.6 °C 18.2 °C 1010.0 hPa SSE 6.6 km/h 9.7 km/h 64% 0.0 mm
09:34 25.7 °C 18.2 °C 1010.0 hPa SSE 5.8 km/h 10 km/h 63.2% 0.0 mm
09:39 25.9 °C 18.3 °C 1010.0 hPa ESE 5.2 km/h 9.7 km/h 63% 0.0 mm
09:44 26.1 °C 18.5 °C 1010.0 hPa ESE 3.9 km/h 8.4 km/h 63% 0.0 mm
09:49 26.2 °C 18.4 °C 1010.0 hPa ESE 4.1 km/h 9.3 km/h 62.3% 0.0 mm
09:54 26.5 °C 18.5 °C 1009.9 hPa SE 4.7 km/h 9.7 km/h 61.4% 0.0 mm
09:59 26.9 °C 18.6 °C 1009.9 hPa SE 4.1 km/h 9.3 km/h 60.3% 0.0 mm
10:04 27.2 °C 18.5 °C 1009.9 hPa Sur 2.9 km/h 9.7 km/h 58.9% 0.0 mm
10:09 27.4 °C 18.4 °C 1009.9 hPa SSO 2.9 km/h 8 km/h 58.1% 0.0 mm
10:14 27.6 °C 18.7 °C 1009.9 hPa SSE 2.9 km/h 10 km/h 58.4% 0.0 mm
10:19 27.6 °C 18.6 °C 1009.9 hPa SSE 3.2 km/h 10 km/h 58% 0.0 mm
10:24 27.7 °C 18.9 °C 1009.8 hPa SSE 3.9 km/h 9.7 km/h 58.5% 0.0 mm
10:29 27.9 °C 18.8 °C 1009.8 hPa SE 4.1 km/h 10.3 km/h 57.9% 0.0 mm
10:34 27.9 °C 18.7 °C 1009.8 hPa SE 4.7 km/h 11.3 km/h 57.5% 0.0 mm
10:39 27.9 °C 18.4 °C 1009.8 hPa SE 5 km/h 10 km/h 56.3% 0.0 mm
10:44 28.1 °C 18.3 °C 1009.8 hPa SSO 5.8 km/h 9.7 km/h 55.3% 0.0 mm
10:49 28.2 °C 18.2 °C 1009.8 hPa Sur 5.2 km/h 8 km/h 54.9% 0.0 mm
10:54 28.5 °C 18.2 °C 1009.6 hPa SO 3.9 km/h 10 km/h 53.6% 0.0 mm
10:59 28.6 °C 18 °C 1009.6 hPa Oeste 3.9 km/h 9.7 km/h 52.7% 0.0 mm
11:04 28.8 °C 18.1 °C 1009.6 hPa ONO 3.9 km/h 8 km/h 52.7% 0.0 mm
11:09 29.1 °C 18 °C 1009.4 hPa SE 3.6 km/h 8 km/h 51.3% 0.0 mm
11:14 29.4 °C 17.9 °C 1009.4 hPa NE 2.9 km/h 8 km/h 50% 0.0 mm
11:19 29.6 °C 17.8 °C 1009.4 hPa Oeste 3.2 km/h 8.4 km/h 49.2% 0.0 mm
11:24 29.7 °C 18.1 °C 1009.3 hPa OSO 3.9 km/h 8 km/h 49.8% 0.0 mm
11:29 30 °C 18.1 °C 1009.3 hPa OSO 3.6 km/h 7.6 km/h 49% 0.0 mm
11:34 30.2 °C 18 °C 1009.3 hPa NNO 2.9 km/h 11.1 km/h 47.9% 0.0 mm
11:39 30.2 °C 17.9 °C 1009.3 hPa North 3.5 km/h 11.3 km/h 47.7% 0.0 mm
11:44 30.3 °C 17.8 °C 1009.3 hPa NNE 5 km/h 8.4 km/h 47.2% 0.0 mm
11:49 30.6 °C 18 °C 1009.3 hPa North 4.9 km/h 8 km/h 47% 0.0 mm
11:54 30.8 °C 17.9 °C 1009.1 hPa NNO 4.7 km/h 9.5 km/h 46.1% 0.0 mm
11:59 31.1 °C 18.1 °C 1009.1 hPa ENE 4.4 km/h 10 km/h 46.1% 0.0 mm
12:04 31.2 °C 18 °C 1009.1 hPa Este 3.9 km/h 9.7 km/h 45.3% 0.0 mm
12:09 31.3 °C 17.7 °C 1008.8 hPa ESE 4.5 km/h 11.9 km/h 44.1% 0.0 mm
12:14 31.4 °C 17.5 °C 1008.8 hPa NE 5.8 km/h 11.3 km/h 43.6% 0.0 mm
12:19 31.5 °C 17.1 °C 1008.8 hPa NNE 6 km/h 13 km/h 42.3% 0.0 mm
12:24 31.6 °C 16.3 °C 1008.6 hPa NNO 6.5 km/h 12.9 km/h 40% 0.0 mm
12:29 31.6 °C 16.2 °C 1008.6 hPa North 6.8 km/h 11.3 km/h 39.6% 0.0 mm
12:34 31.7 °C 16.2 °C 1008.6 hPa NO 7.6 km/h 11.3 km/h 39.4% 0.0 mm
12:39 31.9 °C 15.8 °C 1008.5 hPa NO 7 km/h 11.3 km/h 38% 0.0 mm
12:44 32.2 °C 15.9 °C 1008.5 hPa NNE 5.8 km/h 9.7 km/h 37.6% 0.0 mm
12:49 32.4 °C 15.3 °C 1008.5 hPa ENE 5.4 km/h 9.7 km/h 35.8% 0.0 mm
12:54 32.5 °C 15.3 °C 1008.3 hPa ENE 4.7 km/h 9.7 km/h 35.6% 0.0 mm
12:59 32.8 °C 15.4 °C 1008.3 hPa Oeste 4.7 km/h 13 km/h 35.2% 0.0 mm
13:04 33.1 °C 15.2 °C 1008.3 hPa ONO 4.7 km/h 13 km/h 34.3% 0.0 mm
13:09 33.3 °C 15.3 °C 1008.1 hPa Oeste 4.8 km/h 12.9 km/h 34% 0.0 mm
13:14 33.5 °C 15.5 °C 1008.1 hPa SO 5 km/h 11.3 km/h 34.1% 0.0 mm
13:19 33.7 °C 15.6 °C 1008.1 hPa NE 5.2 km/h 13.7 km/h 34% 0.0 mm
13:24 33.3 °C 15.3 °C 1007.9 hPa NE 5.8 km/h 14.5 km/h 34% 0.0 mm
13:29 33.2 °C 15.2 °C 1007.9 hPa NNE 5.8 km/h 11.9 km/h 34.1% 0.0 mm
13:34 33.2 °C 15.4 °C 1007.9 hPa NNE 5.8 km/h 11.3 km/h 34.4% 0.0 mm
13:39 33.2 °C 15.2 °C 1007.6 hPa NE 5.8 km/h 13.7 km/h 34% 0.0 mm
13:44 33.2 °C 15.2 °C 1007.6 hPa NE 5.8 km/h 14.5 km/h 34% 0.0 mm
13:49 33.1 °C 15.1 °C 1007.6 hPa NE 6 km/h 11.3 km/h 34% 0.0 mm
13:54 33.3 °C 15.2 °C 1007.3 hPa NE 6.5 km/h 9.7 km/h 33.9% 0.0 mm
13:59 33.5 °C 14.9 °C 1007.3 hPa NE 5.9 km/h 11.9 km/h 32.9% 0.0 mm
14:04 33.7 °C 15.2 °C 1007.3 hPa NNE 4.6 km/h 13 km/h 33% 0.0 mm
14:09 33.8 °C 15 °C 1007.3 hPa NNE 5.2 km/h 15.6 km/h 32.4% 0.0 mm
14:14 33.9 °C 14.5 °C 1007.3 hPa North 6.5 km/h 16.1 km/h 31.2% 0.0 mm
14:19 34.1 °C 14.8 °C 1007.3 hPa NNE 6.5 km/h 13.7 km/h 31.4% 0.0 mm
14:24 34.1 °C 14.2 °C 1007.3 hPa NNE 6.5 km/h 16.7 km/h 30.4% 0.0 mm
14:29 34.2 °C 13.8 °C 1007.3 hPa NE 6.6 km/h 16.1 km/h 29.2% 0.0 mm
14:34 34.5 °C 14.2 °C 1007.3 hPa NNO 6.9 km/h 11.3 km/h 29.7% 0.0 mm
14:39 34.7 °C 14.1 °C 1007.0 hPa NNO 6.3 km/h 13.7 km/h 29% 0.0 mm
14:44 34.8 °C 14.1 °C 1007.0 hPa Este 5 km/h 15.6 km/h 29% 0.0 mm
14:49 34.8 °C 14.1 °C 1007.0 hPa ESE 5.2 km/h 16.1 km/h 29% 0.0 mm
14:54 34.8 °C 14.2 °C 1006.5 hPa OSO 5.8 km/h 13 km/h 29% 0.0 mm
14:59 35.1 °C 14.8 °C 1006.5 hPa SE 5.8 km/h 18.5 km/h 29.7% 0.0 mm
15:04 35.1 °C 16.1 °C 1006.5 hPa ESE 5.8 km/h 22.5 km/h 32.4% 0.0 mm
15:09 35.1 °C 17.6 °C 1006.3 hPa ESE 7.4 km/h 22.5 km/h 35.7% 0.0 mm
15:14 34.9 °C 17.4 °C 1006.3 hPa ESE 11.1 km/h 24.1 km/h 35.5% 0.0 mm
15:19 34.8 °C 18.1 °C 1006.3 hPa SE 11.1 km/h 24.1 km/h 37.2% 0.0 mm
15:24 34.9 °C 18.9 °C 1006.1 hPa SE 11.1 km/h 22.5 km/h 39% 0.0 mm
15:29 35 °C 19 °C 1006.1 hPa ESE 11.7 km/h 22.5 km/h 39.1% 0.0 mm
15:34 34.8 °C 19.4 °C 1006.1 hPa ESE 13 km/h 22.5 km/h 40.3% 0.0 mm
15:39 34.8 °C 19.5 °C 1006.0 hPa ESE 12.4 km/h 20.9 km/h 40.7% 0.0 mm
15:44 34.9 °C 19.7 °C 1006.0 hPa Este 11.1 km/h 20.9 km/h 41% 0.0 mm
15:49 35.1 °C 19.9 °C 1006.0 hPa ESE 11.7 km/h 29.6 km/h 41% 0.0 mm
15:54 35.1 °C 20.1 °C 1005.9 hPa Este 13 km/h 29 km/h 41.6% 0.0 mm
15:59 35.1 °C 20 °C 1005.9 hPa Este 13.4 km/h 29.6 km/h 41.5% 0.0 mm
16:04 34.9 °C 20.2 °C 1005.9 hPa ESE 14 km/h 29 km/h 42.3% 0.0 mm
16:09 35 °C 20 °C 1005.7 hPa SE 14.2 km/h 27.4 km/h 41.6% 0.0 mm
16:14 35.1 °C 19.9 °C 1005.7 hPa ESE 14.8 km/h 25.7 km/h 41% 0.0 mm
16:19 35.2 °C 20 °C 1005.7 hPa SE 14.2 km/h 25.9 km/h 41% 0.0 mm
16:24 35.2 °C 19.6 °C 1005.7 hPa ESE 13 km/h 27.8 km/h 40.1% 0.0 mm
16:29 35.2 °C 19.1 °C 1005.7 hPa SE 14.1 km/h 27.4 km/h 39% 0.0 mm
16:34 35.2 °C 19.2 °C 1005.7 hPa ESE 16.4 km/h 31.5 km/h 39.2% 0.0 mm
16:39 35 °C 18.8 °C 1005.4 hPa ESE 17 km/h 32.2 km/h 38.5% 0.0 mm
16:44 35 °C 18.7 °C 1005.4 hPa ESE 18.4 km/h 30.6 km/h 38.3% 0.0 mm
16:49 35.1 °C 18.4 °C 1005.4 hPa ESE 18.3 km/h 29.6 km/h 37.4% 0.0 mm
16:54 35 °C 18.1 °C 1005.2 hPa SE 18 km/h 29 km/h 37% 0.0 mm
16:59 35.3 °C 17.6 °C 1005.2 hPa ESE 17.8 km/h 27.4 km/h 35.4% 0.0 mm
17:04 35.5 °C 17.2 °C 1005.2 hPa ESE 17.2 km/h 29.6 km/h 34% 0.0 mm
17:09 35.6 °C 16.8 °C 1005.1 hPa SE 17.2 km/h 29 km/h 33.1% 0.0 mm
17:14 35.7 °C 16.5 °C 1005.1 hPa ESE 17.2 km/h 25.9 km/h 32% 0.0 mm
17:19 35.7 °C 16.4 °C 1005.1 hPa SE 17 km/h 25.7 km/h 32% 0.0 mm
17:24 35.8 °C 16.4 °C 1004.9 hPa SE 16.4 km/h 27.8 km/h 31.8% 0.0 mm
17:29 35.7 °C 16.3 °C 1004.9 hPa SE 16.3 km/h 27.4 km/h 31.7% 0.0 mm
17:34 35.7 °C 16.3 °C 1004.9 hPa SE 16.1 km/h 26.2 km/h 31.6% 0.0 mm
17:39 35.8 °C 15.8 °C 1004.8 hPa SE 15.5 km/h 29.6 km/h 30.5% 0.0 mm
17:44 35.7 °C 15.3 °C 1004.8 hPa SE 14 km/h 29.6 km/h 29.7% 0.0 mm
17:49 35.7 °C 14.9 °C 1004.8 hPa SE 15.2 km/h 29.8 km/h 29% 0.0 mm
17:54 35.6 °C 15.3 °C 1004.6 hPa SSE 19 km/h 30.6 km/h 30% 0.0 mm
17:59 35.7 °C 15.4 °C 1004.6 hPa SE 18.8 km/h 28.6 km/h 30% 0.0 mm
18:04 35.6 °C 15.3 °C 1004.6 hPa SE 18.4 km/h 29.8 km/h 29.9% 0.0 mm
18:09 35.5 °C 15.1 °C 1004.4 hPa SE 18.8 km/h 33.5 km/h 29.6% 0.0 mm
18:14 35.4 °C 15.2 °C 1004.4 hPa SE 19.8 km/h 33.8 km/h 30.1% 0.0 mm
18:19 35.3 °C 15.3 °C 1004.4 hPa SE 19.9 km/h 32.2 km/h 30.4% 0.0 mm
18:24 35.1 °C 15.4 °C 1004.3 hPa SE 20.1 km/h 32.2 km/h 30.9% 0.0 mm
18:29 35.3 °C 15.6 °C 1004.3 hPa SE 19.6 km/h 30.6 km/h 31% 0.0 mm
18:34 35.3 °C 15.6 °C 1004.3 hPa SE 18.4 km/h 29.6 km/h 31% 0.0 mm
18:39 35.2 °C 15.5 °C 1004.2 hPa SE 17.8 km/h 29 km/h 31% 0.0 mm
18:44 35.2 °C 15.3 °C 1004.2 hPa SE 16.4 km/h 29.6 km/h 30.6% 0.0 mm
18:49 35.2 °C 15.8 °C 1004.2 hPa SE 16.3 km/h 29 km/h 31.5% 0.0 mm
18:54 35 °C 16.1 °C 1004.1 hPa SE 16.1 km/h 28.2 km/h 32.4% 0.0 mm
18:59 34.8 °C 16.5 °C 1004.1 hPa SE 16.5 km/h 27.4 km/h 33.6% 0.0 mm
19:04 34.9 °C 16.7 °C 1004.1 hPa SE 17.2 km/h 25.7 km/h 34% 0.0 mm
19:09 34.8 °C 16.7 °C 1004.1 hPa SE 16.1 km/h 24.5 km/h 34% 0.0 mm
19:14 34.8 °C 16.6 °C 1004.1 hPa SSE 13.7 km/h 24.1 km/h 34% 0.0 mm
19:19 34.8 °C 16.4 °C 1004.2 hPa ESE 13.1 km/h 19.3 km/h 33.5% 0.0 mm
19:24 34.7 °C 16.1 °C 1004.2 hPa SE 11.9 km/h 19.3 km/h 33% 0.0 mm
19:29 34.7 °C 15.8 °C 1004.2 hPa SE 11.6 km/h 22.2 km/h 32.5% 0.0 mm
19:34 34.8 °C 15.9 °C 1004.2 hPa SE 11.1 km/h 22.5 km/h 32.5% 0.0 mm
19:39 34.9 °C 15.8 °C 1004.2 hPa SSE 10.3 km/h 13 km/h 32.2% 0.0 mm
19:44 34.9 °C 15.6 °C 1004.2 hPa SSE 8.4 km/h 13 km/h 31.7% 0.0 mm
19:49 34.9 °C 15.4 °C 1004.3 hPa SE 8.1 km/h 12.9 km/h 31.3% 0.0 mm
19:54 34.8 °C 15.2 °C 1004.3 hPa SE 7.6 km/h 13 km/h 31% 0.0 mm
19:59 34.8 °C 15.2 °C 1004.3 hPa SSE 7.2 km/h 12.9 km/h 31% 0.0 mm
20:04 34.8 °C 15.2 °C 1004.3 hPa SE 6.5 km/h 14 km/h 31% 0.0 mm
20:09 34.8 °C 15.2 °C 1004.2 hPa SE 7 km/h 14.8 km/h 31% 0.0 mm
20:14 34.7 °C 15.3 °C 1004.2 hPa ESE 8.4 km/h 13.7 km/h 31.5% 0.0 mm
20:19 34.4 °C 15.3 °C 1004.2 hPa ESE 8.4 km/h 14.5 km/h 32% 0.0 mm
20:24 34.3 °C 15.3 °C 1004.2 hPa ESE 8.4 km/h 13 km/h 32.3% 0.0 mm
20:29 34.1 °C 15.5 °C 1004.2 hPa ESE 8.5 km/h 13.7 km/h 32.8% 0.0 mm
20:34 33.9 °C 15.3 °C 1004.3 hPa ESE 8.7 km/h 14.8 km/h 32.8% 0.0 mm
20:39 33.8 °C 15.3 °C 1004.3 hPa ESE 9.1 km/h 14.5 km/h 33% 0.0 mm
20:44 33.7 °C 15.5 °C 1004.3 hPa ESE 10 km/h 14.8 km/h 33.6% 0.0 mm
20:49 33.7 °C 15.6 °C 1004.4 hPa SE 9.5 km/h 14.5 km/h 34% 0.0 mm
20:54 33.6 °C 15.9 °C 1004.4 hPa SE 8.4 km/h 14.8 km/h 34.8% 0.0 mm
20:59 33.4 °C 15.9 °C 1004.4 hPa SE 7.9 km/h 12.9 km/h 35% 0.0 mm
21:04 33.4 °C 15.8 °C 1004.4 hPa SE 6.9 km/h 10 km/h 35% 0.0 mm
21:09 33.4 °C 15.8 °C 1004.4 hPa SE 6.3 km/h 9.7 km/h 35% 0.0 mm
21:14 33.4 °C 15.8 °C 1004.4 hPa SSE 5 km/h 8 km/h 35% 0.0 mm
21:19 33.4 °C 15.5 °C 1004.5 hPa SO 4.4 km/h 7.6 km/h 34.3% 0.0 mm
21:24 33.5 °C 15.7 °C 1004.5 hPa OSO 3.2 km/h 9.5 km/h 34.5% 0.0 mm
21:29 33.5 °C 15.9 °C 1004.5 hPa OSO 3.8 km/h 9.7 km/h 35% 0.0 mm
21:34 33.5 °C 16 °C 1004.8 hPa ONO 5 km/h 8.4 km/h 35% 0.0 mm
21:39 33.4 °C 16.2 °C 1004.8 hPa NNO 4.9 km/h 8 km/h 35.7% 0.0 mm
21:44 33.2 °C 16.1 °C 1004.8 hPa NNO 4.7 km/h 8 km/h 36% 0.0 mm
21:49 32.8 °C 16.6 °C 1005.2 hPa North 4.7 km/h 24.5 km/h 38.1% 0.0 mm
21:54 31.7 °C 18.4 °C 1005.2 hPa NNE 5 km/h 24.1 km/h 45.2% 0.0 mm
21:59 30.6 °C 19 °C 1005.2 hPa NE 7.5 km/h 20.9 km/h 50.2% 0.0 mm
22:04 29.9 °C 19.7 °C 1005.3 hPa NE 12.2 km/h 27.8 km/h 54.4% 0.0 mm
22:09 29.3 °C 19.9 °C 1005.3 hPa NE 12.2 km/h 27.4 km/h 57% 0.0 mm
22:14 29 °C 20 °C 1005.3 hPa NE 12.2 km/h 20.9 km/h 58.4% 0.0 mm
22:19 28.8 °C 19.9 °C 1005.5 hPa NE 12.1 km/h 20.4 km/h 58.6% 0.0 mm
22:24 28.7 °C 19.5 °C 1005.5 hPa NE 11.9 km/h 23.3 km/h 57.5% 0.0 mm
22:29 28.6 °C 19 °C 1005.5 hPa NNE 12.2 km/h 24.1 km/h 56% 0.0 mm
22:34 28.6 °C 18.9 °C 1005.7 hPa NNE 13 km/h 24.1 km/h 56% 0.0 mm
22:39 28.5 °C 19.1 °C 1005.7 hPa NNE 12.7 km/h 20.9 km/h 56.8% 0.0 mm
22:44 28.4 °C 19.1 °C 1005.7 hPa NNE 11.9 km/h 19.3 km/h 57% 0.0 mm
22:49 28.3 °C 19.1 °C 1005.9 hPa NE 11.2 km/h 16.7 km/h 57.6% 0.0 mm
22:54 28.3 °C 19.2 °C 1005.9 hPa NE 9.5 km/h 16.1 km/h 58% 0.0 mm
22:59 28.2 °C 19.2 °C 1005.9 hPa NE 9.2 km/h 18 km/h 58% 0.0 mm
23:04 28.2 °C 19.2 °C 1006.0 hPa NE 8.7 km/h 19.3 km/h 58.3% 0.0 mm
23:09 28.1 °C 19.3 °C 1006.0 hPa NNE 9.1 km/h 16.1 km/h 59% 0.0 mm
23:14 28 °C 19.2 °C 1006.0 hPa NNE 10 km/h 17.2 km/h 59% 0.0 mm
23:19 27.9 °C 19.4 °C 1006.0 hPa NNE 10 km/h 17.7 km/h 59.9% 0.0 mm
23:24 27.8 °C 19.2 °C 1006.0 hPa NNE 10 km/h 16.1 km/h 59.5% 0.0 mm
23:29 27.8 °C 19.1 °C 1006.0 hPa NNE 9.5 km/h 14.5 km/h 59% 0.0 mm
23:34 27.8 °C 19.3 °C 1006.2 hPa NNE 8.4 km/h 11.3 km/h 59.8% 0.0 mm
23:39 27.8 °C 19.3 °C 1006.2 hPa NNE 7.5 km/h 11.1 km/h 60% 0.0 mm
23:44 27.8 °C 19.4 °C 1006.2 hPa NNE 5.8 km/h 11.3 km/h 60.2% 0.0 mm
23:49 27.7 °C 19.5 °C 1006.4 hPa NNE 5.8 km/h 11.3 km/h 61% 0.0 mm
23:54 27.7 °C 19.5 °C 1006.4 hPa NNE 5.8 km/h 11.3 km/h 61% 0.0 mm
23:59 27.6 °C 19.5 °C 1006.4 hPa NNE 5.5 km/h 9.5 km/h 61.2% 0.0 mm
Murcia-Puente Tocinos, España
Compliments of Weather Underground - 2.75 mb

La estación de MeteoMurcia.com, publica sus datos en los siguientes proyectos:

Weather Underground PWS IMURCIAP2 Meteoclimatic www.awekas.at

W3Counter
Web Analytics